createdAt,value
2022-11-14T00:01:12.763Z,7.90
2022-11-14T00:03:40.148Z,7.80
2022-11-14T00:06:07.928Z,7.70
2022-11-14T00:08:35.752Z,7.70
2022-11-14T00:11:03.298Z,7.60
2022-11-14T00:13:30.238Z,7.60
2022-11-14T00:15:57.265Z,7.50
2022-11-14T00:18:24.601Z,7.50
2022-11-14T00:20:53.198Z,7.50
2022-11-14T00:23:21.440Z,7.50
2022-11-14T00:25:48.919Z,7.50
2022-11-14T00:28:15.873Z,7.40
2022-11-14T00:30:46.582Z,7.40
2022-11-14T00:33:18.743Z,7.40
2022-11-14T00:35:52.121Z,7.40
2022-11-14T00:38:19.036Z,7.40
2022-11-14T00:40:46.018Z,7.40
2022-11-14T00:43:13.071Z,7.40
2022-11-14T00:45:39.991Z,7.30
2022-11-14T00:48:08.953Z,7.40
2022-11-14T00:50:35.969Z,7.40
2022-11-14T00:53:02.878Z,7.40
2022-11-14T00:55:30.191Z,7.40
2022-11-14T00:57:57.136Z,7.40
2022-11-14T01:00:24.142Z,7.40
2022-11-14T01:02:51.098Z,7.40
2022-11-14T01:05:18.023Z,7.50
2022-11-14T01:07:44.911Z,7.50
2022-11-14T01:10:11.842Z,7.50
2022-11-14T01:12:38.791Z,7.50
2022-11-14T01:15:06.258Z,7.50
2022-11-14T01:17:33.218Z,7.50
2022-11-14T01:20:00.216Z,7.50
2022-11-14T01:22:27.142Z,7.40
2022-11-14T01:24:55.288Z,7.40
2022-11-14T01:27:22.243Z,7.40
2022-11-14T01:29:49.170Z,7.30
2022-11-14T01:32:16.417Z,7.20
2022-11-14T01:34:43.433Z,7.10
2022-11-14T01:37:10.700Z,7.10
2022-11-14T01:39:37.632Z,7.10
2022-11-14T01:42:04.750Z,7.00
2022-11-14T01:44:52.625Z,7.00
2022-11-14T01:47:24.083Z,7.10
2022-11-14T01:49:56.143Z,7.10
2022-11-14T01:52:27.887Z,7.10
2022-11-14T01:54:57.983Z,7.10
2022-11-14T01:57:31.069Z,7.00
2022-11-14T02:00:02.252Z,7.00
2022-11-14T02:02:29.230Z,7.00
2022-11-14T02:05:11.604Z,6.90
2022-11-14T02:07:40.689Z,6.90
2022-11-14T02:10:25.837Z,6.90
2022-11-14T02:12:53.232Z,6.90
2022-11-14T02:15:20.236Z,6.80
2022-11-14T02:17:47.276Z,6.80
2022-11-14T02:20:14.176Z,6.70
2022-11-14T02:22:42.705Z,6.70
2022-11-14T02:25:13.163Z,6.70
2022-11-14T02:27:41.597Z,6.60
2022-11-14T02:30:12.213Z,6.60
2022-11-14T02:35:26.164Z,6.50
2022-11-14T02:37:53.213Z,6.50
2022-11-14T02:40:20.150Z,6.40
2022-11-14T02:42:47.033Z,6.40
2022-11-14T02:45:14.033Z,6.40
2022-11-14T02:47:40.960Z,6.50
2022-11-14T02:50:08.126Z,6.40
2022-11-14T02:52:35.061Z,6.40
2022-11-14T02:55:01.977Z,6.40
2022-11-14T02:57:28.928Z,6.40
2022-11-14T02:59:55.916Z,6.40
2022-11-14T03:02:22.848Z,6.40
2022-11-14T03:04:49.885Z,6.50
2022-11-14T03:07:17.041Z,6.60
2022-11-14T03:09:44.063Z,6.60
2022-11-14T03:12:11.195Z,6.70
2022-11-14T03:14:38.143Z,6.70
2022-11-14T03:17:05.081Z,6.80
2022-11-14T03:19:32.113Z,6.80
2022-11-14T03:21:59.171Z,6.80
2022-11-14T03:24:26.172Z,6.90
2022-11-14T03:26:53.209Z,6.90
2022-11-14T03:29:20.193Z,6.90
2022-11-14T03:31:47.188Z,6.90
2022-11-14T03:34:14.839Z,7.00
2022-11-14T03:36:41.809Z,7.00
2022-11-14T03:39:09.522Z,7.00
2022-11-14T03:41:36.457Z,7.10
2022-11-14T03:44:03.589Z,7.10
2022-11-14T03:46:30.534Z,7.20
2022-11-14T03:48:57.420Z,7.20
2022-11-14T03:51:24.374Z,7.20
2022-11-14T03:53:51.305Z,7.20
2022-11-14T03:56:18.222Z,7.20
2022-11-14T03:58:45.164Z,7.20
2022-11-14T04:01:12.138Z,7.20
2022-11-14T04:03:39.088Z,7.30
2022-11-14T04:06:06.277Z,7.20
2022-11-14T04:08:33.520Z,7.30
2022-11-14T04:11:00.563Z,7.30
2022-11-14T04:13:27.540Z,7.20
2022-11-14T04:15:56.348Z,7.30
2022-11-14T04:18:23.991Z,7.30
2022-11-14T04:20:51.420Z,7.40
2022-11-14T04:23:18.890Z,7.40
2022-11-14T04:25:46.575Z,7.50
2022-11-14T04:28:14.355Z,7.50
2022-11-14T04:30:42.392Z,7.50
2022-11-14T04:33:09.260Z,7.50
2022-11-14T04:35:37.069Z,7.50
2022-11-14T04:38:04.402Z,7.50
2022-11-14T04:40:31.337Z,7.60
2022-11-14T04:42:58.340Z,7.60
2022-11-14T04:45:25.308Z,7.60
2022-11-14T04:47:52.291Z,7.60
2022-11-14T04:50:19.314Z,7.60
2022-11-14T04:52:46.365Z,7.70
2022-11-14T04:55:13.260Z,7.90
2022-11-14T04:57:40.187Z,7.90
2022-11-14T05:00:07.994Z,8.00
2022-11-14T05:02:34.910Z,7.90
2022-11-14T05:05:02.056Z,7.80
2022-11-14T05:07:29.032Z,7.70
2022-11-14T05:09:57.419Z,7.60
2022-11-14T05:12:24.788Z,7.50
2022-11-14T05:14:51.742Z,7.60
2022-11-14T05:17:18.672Z,7.60
2022-11-14T05:19:45.712Z,7.70
2022-11-14T05:22:13.065Z,7.70
2022-11-14T05:24:40.086Z,7.70
2022-11-14T05:27:07.073Z,7.60
2022-11-14T05:29:34.146Z,7.60
2022-11-14T05:32:01.376Z,7.60
2022-11-14T05:34:28.332Z,7.60
2022-11-14T05:36:55.739Z,7.60
2022-11-14T05:39:22.667Z,7.60
2022-11-14T05:41:49.632Z,7.60
2022-11-14T05:44:16.586Z,7.60
2022-11-14T05:46:43.567Z,7.60
2022-11-14T05:49:10.533Z,7.60
2022-11-14T05:51:37.456Z,7.60
2022-11-14T05:54:04.772Z,7.60
2022-11-14T05:56:32.433Z,7.60
2022-11-14T05:58:59.433Z,7.70
2022-11-14T06:01:27.935Z,7.60
2022-11-14T06:03:55.173Z,7.60
2022-11-14T06:06:22.616Z,7.70
2022-11-14T06:08:50.291Z,7.60
2022-11-14T06:11:19.792Z,7.60
2022-11-14T06:13:47.322Z,7.70
2022-11-14T06:16:19.053Z,7.70
2022-11-14T06:18:46.520Z,7.80
2022-11-14T06:21:18.218Z,7.80
2022-11-14T06:23:46.130Z,7.80
2022-11-14T06:26:22.989Z,7.80
2022-11-14T06:28:51.059Z,7.70
2022-11-14T06:31:18.835Z,7.80
2022-11-14T06:33:46.113Z,7.80
2022-11-14T06:36:13.932Z,7.90
2022-11-14T06:38:42.033Z,7.90
2022-11-14T06:41:14.460Z,8.00
2022-11-14T06:43:43.416Z,8.00
2022-11-14T06:46:12.354Z,8.00
2022-11-14T06:48:39.997Z,8.00
2022-11-14T06:51:07.493Z,8.00
2022-11-14T06:53:36.057Z,8.00
2022-11-14T06:56:06.007Z,8.00
2022-11-14T06:58:39.330Z,8.00
2022-11-14T07:01:15.303Z,8.00
2022-11-14T07:03:43.463Z,8.00
2022-11-14T07:06:12.399Z,8.10
2022-11-14T07:08:39.359Z,8.10
2022-11-14T07:11:23.042Z,8.00
2022-11-14T07:13:51.243Z,8.00
2022-11-14T07:16:19.187Z,8.20
2022-11-14T07:18:46.551Z,8.20
2022-11-14T07:21:14.007Z,8.20
2022-11-14T07:23:41.962Z,8.30
2022-11-14T07:26:10.790Z,8.30
2022-11-14T07:28:39.989Z,8.30
2022-11-14T07:31:08.783Z,8.30
2022-11-14T07:33:36.169Z,8.40
2022-11-14T07:36:03.153Z,8.40
2022-11-14T07:38:32.315Z,8.40
2022-11-14T07:41:02.289Z,8.50
2022-11-14T07:43:33.589Z,8.50
2022-11-14T07:46:06.536Z,8.50
2022-11-14T07:48:34.182Z,8.60
2022-11-14T07:51:02.605Z,8.70
2022-11-14T07:53:30.226Z,8.70
2022-11-14T07:56:01.906Z,8.80
2022-11-14T07:58:29.184Z,8.80
2022-11-14T08:00:57.054Z,9.00
2022-11-14T08:03:24.114Z,9.10
2022-11-14T08:06:00.014Z,9.10
2022-11-14T08:08:34.288Z,9.00
2022-11-14T08:11:05.131Z,8.90
2022-11-14T08:13:33.713Z,9.00
2022-11-14T08:16:12.433Z,9.10
2022-11-14T08:18:41.620Z,9.10
2022-11-14T08:21:08.792Z,9.30
2022-11-14T08:23:35.773Z,9.50
2022-11-14T08:26:04.065Z,9.50
2022-11-14T08:28:33.074Z,9.70
2022-11-14T08:31:05.111Z,9.80
2022-11-14T08:33:33.571Z,9.80
2022-11-14T08:36:02.580Z,9.80
2022-11-14T08:38:31.884Z,9.60
2022-11-14T08:41:00.729Z,9.50
2022-11-14T08:43:30.154Z,9.40
2022-11-14T08:46:01.564Z,9.50
2022-11-14T08:48:30.673Z,9.50
2022-11-14T08:51:02.676Z,9.50
2022-11-14T08:53:29.702Z,9.70
2022-11-14T08:55:56.917Z,9.90
2022-11-14T08:58:24.121Z,10.10
2022-11-14T09:00:52.085Z,10.20
2022-11-14T09:03:19.229Z,10.30
2022-11-14T09:05:52.576Z,10.30
2022-11-14T09:08:19.642Z,10.20
2022-11-14T09:10:46.739Z,10.30
2022-11-14T09:13:13.928Z,10.20
2022-11-14T09:15:41.150Z,10.20
2022-11-14T09:18:10.108Z,10.30
2022-11-14T09:20:40.113Z,10.40
2022-11-14T09:23:07.744Z,10.50
2022-11-14T09:25:38.255Z,10.40
2022-11-14T09:28:10.261Z,10.30
2022-11-14T09:30:42.122Z,10.30
2022-11-14T09:33:12.696Z,10.40
2022-11-14T09:35:39.705Z,10.30
2022-11-14T09:38:09.921Z,10.50
2022-11-14T09:40:58.508Z,10.90
2022-11-14T09:43:53.798Z,11.00
2022-11-14T09:46:34.249Z,10.90
2022-11-14T09:49:01.210Z,11.10
2022-11-14T09:51:33.224Z,11.30
2022-11-14T09:54:11.436Z,11.20
2022-11-14T09:56:38.379Z,11.30
2022-11-14T09:59:11.229Z,11.10
2022-11-14T10:01:56.652Z,11.00
2022-11-14T10:04:45.297Z,11.20
2022-11-14T10:07:22.062Z,11.00
2022-11-14T10:10:13.859Z,11.00
2022-11-14T10:12:49.145Z,11.10
2022-11-14T10:15:19.847Z,11.10
2022-11-14T10:18:16.368Z,11.20
2022-11-14T10:21:19.563Z,11.10
2022-11-14T10:24:03.580Z,11.00
2022-11-14T10:26:32.506Z,10.80
2022-11-14T10:29:17.502Z,10.60
2022-11-14T10:31:52.674Z,10.50
2022-11-14T10:34:44.184Z,10.50
2022-11-14T10:37:20.678Z,10.50
2022-11-14T10:39:54.051Z,10.60
2022-11-14T10:42:26.965Z,10.70
2022-11-14T10:45:15.449Z,10.80
2022-11-14T10:47:48.710Z,10.90
2022-11-14T10:50:20.639Z,11.00
2022-11-14T10:52:49.676Z,11.20
2022-11-14T10:55:20.720Z,11.70
2022-11-14T10:57:52.043Z,11.90
2022-11-14T11:00:23.141Z,12.30
2022-11-14T11:02:55.896Z,12.30
2022-11-14T11:05:44.475Z,12.10
2022-11-14T11:08:43.322Z,11.80
2022-11-14T11:11:31.898Z,11.50
2022-11-14T11:14:01.681Z,11.40
2022-11-14T11:16:29.933Z,11.50
2022-11-14T11:19:24.183Z,11.50
2022-11-14T11:21:53.574Z,11.60
2022-11-14T11:24:32.893Z,11.40
2022-11-14T11:27:24.310Z,11.40
2022-11-14T11:30:18.562Z,11.40
2022-11-14T11:32:45.590Z,11.40
2022-11-14T11:35:17.624Z,11.50
2022-11-14T11:38:05.455Z,11.40
2022-11-14T11:40:32.697Z,11.50
2022-11-14T11:45:54.953Z,11.40
2022-11-14T11:48:23.839Z,11.40
2022-11-14T11:50:50.778Z,11.30
2022-11-14T11:53:48.623Z,11.10
2022-11-14T11:56:21.659Z,11.20
2022-11-14T11:58:54.278Z,11.20
2022-11-14T12:01:21.892Z,11.20
2022-11-14T12:03:51.979Z,11.10
2022-11-14T12:06:25.065Z,11.00
2022-11-14T12:09:10.647Z,11.00
2022-11-14T12:11:42.725Z,10.70
2022-11-14T12:14:34.096Z,10.50
2022-11-14T12:17:01.287Z,10.50
2022-11-14T12:19:34.343Z,10.40
2022-11-14T12:22:01.175Z,10.20
2022-11-14T12:24:40.344Z,10.10
2022-11-14T12:27:22.480Z,10.10
2022-11-14T12:29:49.485Z,10.20
2022-11-14T12:32:31.050Z,10.10
2022-11-14T12:35:00.093Z,10.20
2022-11-14T12:37:35.753Z,10.30
2022-11-14T12:40:07.739Z,10.50
2022-11-14T12:42:35.571Z,10.70
2022-11-14T12:45:02.532Z,10.90
2022-11-14T12:47:29.660Z,11.10
2022-11-14T12:49:57.714Z,11.20
2022-11-14T12:52:46.293Z,11.30
2022-11-14T12:55:25.178Z,11.10
2022-11-14T12:58:11.195Z,11.10
2022-11-14T13:00:50.029Z,11.00
2022-11-14T13:03:46.267Z,10.90
2022-11-14T13:06:25.433Z,10.90
2022-11-14T13:09:09.739Z,10.70
2022-11-14T13:12:06.741Z,10.70
2022-11-14T13:15:09.151Z,10.70
2022-11-14T13:17:54.715Z,10.70
2022-11-14T13:20:53.057Z,10.60
2022-11-14T13:23:25.774Z,10.50
2022-11-14T13:26:11.116Z,10.50
2022-11-14T13:28:38.208Z,10.50
2022-11-14T13:31:17.032Z,10.40
2022-11-14T13:33:49.693Z,10.40
2022-11-14T13:36:41.968Z,10.40
2022-11-14T13:39:24.740Z,10.40
2022-11-14T13:42:09.821Z,10.40
2022-11-14T13:44:57.759Z,10.30
2022-11-14T13:47:52.725Z,10.40
2022-11-14T13:50:26.898Z,10.30
2022-11-14T13:52:54.417Z,10.30
2022-11-14T13:55:44.910Z,10.30
2022-11-14T13:58:53.217Z,10.10
2022-11-14T14:01:31.855Z,10.10
2022-11-14T14:04:24.028Z,10.10
2022-11-14T14:07:17.255Z,10.10
2022-11-14T14:09:51.149Z,10.00
2022-11-14T14:12:18.025Z,9.80
2022-11-14T14:14:44.923Z,9.80
2022-11-14T14:17:29.977Z,9.80
2022-11-14T14:20:00.383Z,9.70
2022-11-14T14:22:42.097Z,9.60
2022-11-14T14:25:28.570Z,9.40
2022-11-14T14:28:25.057Z,9.40
2022-11-14T14:31:24.504Z,9.50
2022-11-14T14:33:52.725Z,9.40
2022-11-14T14:36:28.259Z,9.30
2022-11-14T14:39:28.337Z,9.20
2022-11-14T14:41:57.734Z,9.20
2022-11-14T14:44:33.927Z,9.20
2022-11-14T14:47:16.431Z,9.30
2022-11-14T14:49:44.145Z,9.20
2022-11-14T14:52:29.894Z,9.10
2022-11-14T14:54:58.824Z,9.10
2022-11-14T14:57:26.030Z,9.20
2022-11-14T15:00:08.165Z,9.20
2022-11-14T15:02:35.157Z,9.20
2022-11-14T15:05:02.889Z,9.20
2022-11-14T15:07:33.622Z,9.10
2022-11-14T15:10:03.304Z,9.20
2022-11-14T15:12:31.836Z,9.10
2022-11-14T15:15:01.024Z,9.10
2022-11-14T15:17:32.984Z,9.10
2022-11-14T15:20:03.569Z,9.10
2022-11-14T15:22:30.604Z,9.20
2022-11-14T15:25:13.491Z,9.10
2022-11-14T15:27:51.474Z,9.10
2022-11-14T15:30:30.897Z,9.00
2022-11-14T15:33:00.089Z,9.10
2022-11-14T15:35:35.871Z,9.10
2022-11-14T15:41:19.386Z,9.20
2022-11-14T15:43:48.191Z,9.30
2022-11-14T15:46:34.203Z,9.30
2022-11-14T15:49:07.068Z,9.30
2022-11-14T15:51:57.885Z,9.40
2022-11-14T15:54:35.731Z,9.30
2022-11-14T15:57:14.280Z,9.40
2022-11-14T15:59:41.208Z,9.40
2022-11-14T16:02:18.398Z,9.40
2022-11-14T16:04:47.826Z,9.40
2022-11-14T16:07:16.933Z,9.40
2022-11-14T16:09:44.608Z,9.40
2022-11-14T16:12:11.878Z,9.40
2022-11-14T16:14:38.884Z,9.30
2022-11-14T16:17:12.418Z,9.30
2022-11-14T16:19:39.343Z,9.30
2022-11-14T16:22:06.577Z,9.30
2022-11-14T16:24:34.347Z,9.30
2022-11-14T16:27:02.149Z,9.20
2022-11-14T16:29:29.178Z,9.30
2022-11-14T16:31:56.165Z,9.30
2022-11-14T16:34:25.415Z,9.30
2022-11-14T16:37:01.767Z,9.30
2022-11-14T16:39:29.052Z,9.30
2022-11-14T16:42:03.025Z,9.30
2022-11-14T16:44:32.579Z,9.40
2022-11-14T16:47:01.632Z,9.40
2022-11-14T16:49:28.600Z,9.40
2022-11-14T16:51:56.783Z,9.40
2022-11-14T16:54:24.634Z,9.40
2022-11-14T16:56:51.658Z,9.50
2022-11-14T16:59:18.615Z,9.50
2022-11-14T17:01:46.898Z,9.40
2022-11-14T17:04:13.926Z,9.40
2022-11-14T17:06:40.941Z,9.50
2022-11-14T17:09:08.022Z,9.50
2022-11-14T17:11:35.174Z,9.50
2022-11-14T17:14:02.191Z,9.40
2022-11-14T17:16:29.098Z,9.40
2022-11-14T17:18:56.279Z,9.40
2022-11-14T17:21:24.395Z,9.40
2022-11-14T17:24:01.467Z,9.40
2022-11-14T17:26:29.120Z,9.40
2022-11-14T17:28:56.327Z,9.40
2022-11-14T17:31:23.345Z,9.50
2022-11-14T17:33:56.334Z,9.60
2022-11-14T17:36:25.134Z,9.50
2022-11-14T17:38:52.537Z,9.30
2022-11-14T17:41:20.400Z,9.30
2022-11-14T17:43:47.759Z,9.30
2022-11-14T17:46:16.359Z,9.30
2022-11-14T17:48:44.726Z,9.40
2022-11-14T17:51:14.556Z,9.40
2022-11-14T17:53:42.517Z,9.40
2022-11-14T17:56:21.714Z,9.30
2022-11-14T17:58:51.165Z,9.20
2022-11-14T18:01:20.570Z,9.20
2022-11-14T18:03:47.772Z,9.20
2022-11-14T18:06:20.228Z,9.20
2022-11-14T18:08:47.777Z,9.20
2022-11-14T18:11:17.154Z,9.20
2022-11-14T18:13:44.342Z,9.20
2022-11-14T18:16:14.006Z,9.30
2022-11-14T18:18:41.111Z,9.20
2022-11-14T18:21:09.308Z,9.20
2022-11-14T18:23:36.340Z,9.20
2022-11-14T18:26:14.585Z,9.20
2022-11-14T18:28:42.267Z,9.20
2022-11-14T18:31:11.153Z,9.20
2022-11-14T18:33:42.079Z,9.20
2022-11-14T18:36:12.618Z,9.10
2022-11-14T18:38:40.640Z,9.10
2022-11-14T18:41:10.462Z,9.10
2022-11-14T18:43:37.469Z,9.10
2022-11-14T18:46:15.792Z,9.10
2022-11-14T18:48:45.303Z,9.10
2022-11-14T18:51:17.991Z,9.10
2022-11-14T18:53:45.128Z,9.10
2022-11-14T18:56:17.751Z,9.00
2022-11-14T18:58:45.260Z,9.00
2022-11-14T19:01:14.471Z,9.00
2022-11-14T19:03:41.646Z,9.10
2022-11-14T19:06:11.323Z,9.10
2022-11-14T19:08:39.658Z,9.10
2022-11-14T19:11:30.445Z,9.10
2022-11-14T19:14:00.569Z,9.00
2022-11-14T19:16:27.642Z,8.90
2022-11-14T19:18:58.112Z,8.90
2022-11-14T19:21:25.464Z,9.00
2022-11-14T19:23:53.908Z,8.90
2022-11-14T19:26:22.170Z,9.00
2022-11-14T19:28:49.585Z,9.00
2022-11-14T19:31:17.142Z,9.00
2022-11-14T19:33:45.465Z,9.00
2022-11-14T19:36:32.376Z,9.00
2022-11-14T19:39:05.219Z,9.00
2022-11-14T19:41:32.414Z,8.90
2022-11-14T19:44:01.706Z,8.90
2022-11-14T19:46:31.768Z,8.90
2022-11-14T19:49:00.375Z,9.00
2022-11-14T19:51:28.962Z,9.10
2022-11-14T19:53:58.087Z,9.10
2022-11-14T19:56:25.471Z,9.10
2022-11-14T19:58:55.333Z,9.10
2022-11-14T20:01:27.799Z,9.10
2022-11-14T20:04:00.474Z,9.10
2022-11-14T20:06:37.009Z,9.10
2022-11-14T20:09:09.125Z,9.10
2022-11-14T20:11:38.244Z,9.10
2022-11-14T20:14:06.169Z,9.10
2022-11-14T20:16:37.490Z,9.10
2022-11-14T20:19:05.237Z,9.00
2022-11-14T20:21:34.281Z,9.00
2022-11-14T20:24:01.945Z,9.00
2022-11-14T20:26:29.275Z,9.00
2022-11-14T20:28:56.987Z,9.00
2022-11-14T20:31:27.444Z,9.00
2022-11-14T20:33:56.200Z,9.00
2022-11-14T20:36:32.013Z,9.10
2022-11-14T20:39:03.039Z,9.20
2022-11-14T20:41:30.867Z,9.20
2022-11-14T20:43:58.254Z,9.10
2022-11-14T20:46:26.102Z,9.20
2022-11-14T20:48:54.392Z,9.20
2022-11-14T20:51:24.559Z,9.30
2022-11-14T20:53:54.761Z,9.30
2022-11-14T20:56:23.645Z,9.30
2022-11-14T20:58:54.935Z,9.30
2022-11-14T21:01:22.769Z,9.30
2022-11-14T21:03:51.056Z,9.30
2022-11-14T21:06:18.999Z,9.40
2022-11-14T21:08:46.569Z,9.40
2022-11-14T21:11:18.222Z,9.40
2022-11-14T21:13:57.925Z,9.30
2022-11-14T21:16:31.610Z,9.30
2022-11-14T21:18:59.415Z,9.40
2022-11-14T21:21:27.684Z,9.40
2022-11-14T21:23:55.309Z,9.40
2022-11-14T21:26:25.050Z,9.40
2022-11-14T21:28:57.851Z,9.40
2022-11-14T21:31:33.951Z,9.40
2022-11-14T21:34:03.474Z,9.40
2022-11-14T21:36:47.101Z,9.40
2022-11-14T21:39:16.200Z,9.40
2022-11-14T21:41:45.027Z,9.40
2022-11-14T21:44:14.703Z,9.40
2022-11-14T21:46:42.302Z,9.40
2022-11-14T21:49:10.188Z,9.40
2022-11-14T21:51:37.099Z,9.30
2022-11-14T21:54:06.448Z,9.30
2022-11-14T21:56:35.480Z,9.30
2022-11-14T21:59:14.284Z,9.30
2022-11-14T22:02:02.016Z,9.30
2022-11-14T22:04:29.241Z,9.30
2022-11-14T22:06:56.370Z,9.30
2022-11-14T22:09:23.507Z,9.30
2022-11-14T22:11:50.589Z,9.30
2022-11-14T22:14:17.536Z,9.20
2022-11-14T22:16:44.561Z,9.20
2022-11-14T22:19:11.596Z,9.10
2022-11-14T22:21:38.565Z,9.10
2022-11-14T22:24:05.905Z,9.00
2022-11-14T22:26:36.595Z,9.00
2022-11-14T22:29:03.605Z,9.00
2022-11-14T22:31:30.607Z,9.00
2022-11-14T22:33:58.822Z,9.00
2022-11-14T22:36:27.098Z,9.00
2022-11-14T22:38:55.167Z,9.00
2022-11-14T22:41:33.068Z,9.10
2022-11-14T22:44:01.402Z,9.10
2022-11-14T22:46:29.197Z,9.20
2022-11-14T22:48:56.784Z,9.20
2022-11-14T22:51:27.720Z,9.20
2022-11-14T22:53:56.895Z,9.30
2022-11-14T22:56:26.607Z,9.20
2022-11-14T22:58:53.552Z,9.20
2022-11-14T23:01:32.034Z,9.30
2022-11-14T23:04:01.510Z,9.30
2022-11-14T23:06:30.490Z,9.30
2022-11-14T23:08:58.050Z,9.40
2022-11-14T23:11:27.667Z,9.40
2022-11-14T23:13:56.342Z,9.40
2022-11-14T23:16:28.838Z,9.40
2022-11-14T23:18:57.618Z,9.40
2022-11-14T23:21:34.579Z,9.40
2022-11-14T23:24:08.784Z,9.40
2022-11-14T23:26:35.842Z,9.30
2022-11-14T23:29:03.853Z,9.30
2022-11-14T23:31:30.831Z,9.30
2022-11-14T23:33:58.350Z,9.30
2022-11-14T23:36:25.790Z,9.20
2022-11-14T23:38:53.671Z,9.10
2022-11-14T23:41:23.014Z,9.10
2022-11-14T23:43:50.014Z,9.00
2022-11-14T23:46:17.090Z,9.00
2022-11-14T23:48:44.051Z,9.10
2022-11-14T23:51:11.640Z,9.00
2022-11-14T23:53:38.580Z,9.00
2022-11-14T23:56:05.825Z,9.00
2022-11-14T23:58:32.781Z,9.10
